Flight Track Log - Related Links

Times and Time Zones

All times are in EDT time to prevent confusion due to time zone crossing. See the N1173X flight status page for this flight to view local times or setup timezone preferences in your user account.

Time Position Orientation Groundspeed Altitude Reporting Facility
EDT Latitude Longitude Course Direction KTS MPH feet Rate Location/Type
Fri 12:23:25 PM 35.7522 -81.3878 44° Northeast 109 125 2,000  Level Atlanta Center
Fri 12:24:25 PM 35.7508 -81.4236 267° West 61 70 2,700 700 Climbing Atlanta Center
Fri 12:25:25 PM 35.7475 -81.4569 263° West 89 102 3,400 700 Climbing Atlanta Center
Fri 12:26:25 PM 35.7461 -81.4903 267° West 107 123 4,100 700 Climbing Atlanta Center
Fri 12:27:25 PM 35.7342 -81.5189 243° Southwest 101 116 4,800 600 Climbing Atlanta Center
Fri 12:28:25 PM 35.7200 -81.5500 241° Southwest 106 122 5,300 500 Climbing Atlanta Center
Fri 12:29:25 PM 35.7083 -81.5811 245° Southwest 106 122 5,800 500 Climbing Atlanta Center
Fri 12:30:25 PM 35.6964 -81.6119 245° Southwest 106 122 6,300 450 Climbing Atlanta Center
Fri 12:31:25 PM 35.6844 -81.6406 243° Southwest 100 115 6,700 350 Climbing Atlanta Center
Fri 12:32:25 PM 35.6703 -81.6692 239° Southwest 100 115 7,000 150 Climbing Atlanta Center
Fri 12:33:25 PM 35.6544 -81.7053 242° Southwest 100 115 7,000  Level Atlanta Center
Fri 12:34:25 PM 35.6422 -81.7286 237° Southwest 106 122 7,000  Level Atlanta Center
Fri 12:35:25 PM 35.6283 -81.7647 245° Southwest 106 122 7,000  Level Atlanta Center
Fri 12:36:25 PM 35.6122 -81.7983 239° Southwest 116 133 7,000  Level Atlanta Center
Fri 12:37:25 PM 35.5961 -81.8347 241° Southwest 116 133 7,000  Level Atlanta Center
Fri 12:38:25 PM 35.5822 -81.8683 243° Southwest 121 139 7,000  Level Atlanta Center
Fri 12:39:25 PM 35.5661 -81.9044 241° Southwest 121 139 7,000  Level Atlanta Center
Fri 12:40:25 PM 35.5542 -81.9378 246° West 121 139 7,000  Level Atlanta Center
Fri 12:41:25 PM 35.5361 -81.9742 239° Southwest 121 139 7,000  Level Atlanta Center
Fri 12:42:25 PM 35.5219 -82.0103 244° Southwest 121 139 7,000  Level Atlanta Center
Fri 12:43:25 PM 35.5058 -82.0464 241° Southwest 121 139 7,000  Level Atlanta Center
Fri 12:44:25 PM 35.4897 -82.0772 237° Southwest 121 139 7,000  Level Atlanta Center
Fri 12:45:25 PM 35.4758 -82.1133 245° Southwest 121 139 7,000  Level Atlanta Center
Fri 12:46:25 PM 35.4617 -82.1494 244° Southwest 121 139 7,000  Level Atlanta Center
Fri 12:47:25 PM 35.4478 -82.1853 245° Southwest 121 139 7,000  Level Atlanta Center
Fri 12:48:25 PM 35.4461 -82.2289 267° West 121 139 7,000  Level Atlanta Center
Fri 12:49:25 PM 35.4469 -82.2722 271° West 126 145 7,000  Level Atlanta Center
Fri 12:50:25 PM 35.4475 -82.3128 271° West 126 145 7,000  Level Atlanta Center
Fri 12:51:25 PM 35.4583 -82.3533 288° West 126 145 7,000  Level Atlanta Center
Fri 12:52:25 PM 35.4778 -82.3964 299° West 126 145 7,000 -100 Level Atlanta Center
Fri 12:53:25 PM 35.4972 -82.4367 301° West 138 159 6,800 -250 Descending Atlanta Center
Fri 12:54:25 PM 35.5122 -82.4800 293° West 138 159 6,500 600 Descending Atlanta Center
Fri 12:55:25 PM 35.5294 -82.5256 295° West 138 159 8,000 1,500 Climbing Atlanta Center
Fri 12:57:00 PM 35.5786 -82.5174 North  Level FlightAware Approximate
Fri 01:04:00 PM 35.5957 -82.6094 155° Southeast  Level FlightAware Approximate
Fri 01:05:00 PM 35.5673 -82.5932 155° Southeast  Level FlightAware Approximate
Fri 01:06:00 PM 35.5378 -82.5833 180° South  Level FlightAware Approximate
Fri 01:07:00 PM 35.5084 -82.5709 158° South  Level FlightAware Approximate
Fri 01:08:00 PM 35.4794 -82.5564 158° South  Level FlightAware Approximate
Fri 01:09:00 PM 35.4504 -82.5418 158° South  Level FlightAware Approximate
Fri 01:10:00 PM 35.4333 -82.5333 158° South  Level FlightAware Approximate
Fri 01:11:00 PM 35.4362 -82.5418 158° South  Level Estimated
Fri 01:12:00 PM 35.4362 -82.5418 158° South  Level Estimated
Fri 01:13:00 PM 35.4362 -82.5418 158° South  Level Estimated
Fri 01:14:00 PM 35.4362 -82.5418 158° South  Level Estimated
Fri 01:15:00 PM 35.4362 -82.5418 158° South  Level Estimated
Fri 01:16:00 PM 35.4362 -82.5418 158° South  Level Estimated
Fri 01:17:00 PM 35.4362 -82.5418 158° South  Level Estimated
Fri 01:18:00 PM 35.4362 -82.5418 158° South  Level Estimated
Fri 01:19:00 PM 35.4362 -82.5418 158° South  Level Estimated

Login

Don't have an account? Register now (free) for customized features, flight alerts, and more!